Flight Track Log - Related Links

Times and Time Zones

All times are in EDT time to prevent confusion due to time zone crossing. See the SWA104 flight status page for this flight to view local times or setup timezone preferences in your user account.

Time Position Orientation Groundspeed Altitude Reporting Facility
EDT Latitude Longitude Course Direction KTS MPH feet Rate Location/Type
Thu 03:03:26 PM 33.4333 -112.0167 270° West 171 197 1,800  Level Phoenix TRACON
Thu 03:04:09 PM 33.4333 -112.0667 270° West 171 197 3,500 2,231 Climbing Phoenix TRACON
Thu 03:05:27 PM 33.4008 -112.1536 246° West 231 266 6,300 2,829 Climbing Albuquerque Center
Thu 03:06:29 PM 33.3942 -112.2475 265° West 284 327 10,100 3,484 Climbing Albuquerque Center
Thu 03:07:31 PM 33.4044 -112.3525 277° West 316 364 13,500 3,339 Climbing Albuquerque Center
Thu 03:08:33 PM 33.4167 -112.4689 277° West 346 398 17,000 3,339 Climbing Albuquerque Center
Thu 03:09:35 PM 33.4314 -112.6072 277° West 370 426 20,400 3,145 Climbing Albuquerque Center
Thu 03:10:37 PM 33.4444 -112.7378 277° West 388 447 23,500 2,710 Climbing Albuquerque Center
Thu 03:11:39 PM 33.4614 -112.8708 279° West 402 463 26,000 2,323 Climbing Albuquerque Center
Thu 03:12:41 PM 33.4892 -113.0075 284° West 418 481 28,300 1,319 Climbing Albuquerque Center
Thu 03:14:41 PM 33.5419 -113.2831 283° West 425 489 30,000 560 Climbing Los Angeles Center
Thu 03:15:43 PM 33.5714 -113.4450 282° West 416 479 30,000  Level Los Angeles Center
Thu 03:16:45 PM 33.5950 -113.5808 282° West 415 478 30,000  Level Los Angeles Center
Thu 03:17:48 PM 33.6239 -113.7178 284° West 420 483 30,000  Level Los Angeles Center
Thu 03:18:50 PM 33.6483 -113.8550 282° West 420 483 30,000  Level Los Angeles Center
Thu 03:19:52 PM 33.6731 -113.9914 282° West 421 484 30,000  Level Los Angeles Center
Thu 03:20:54 PM 33.6922 -114.1308 279° West 421 484 30,000  Level Los Angeles Center
Thu 03:21:56 PM 33.7056 -114.2989 275° West 422 486 30,000  Level Los Angeles Center
Thu 03:22:58 PM 33.7172 -114.4392 276° West 423 487 30,000  Level Los Angeles Center
Thu 03:24:01 PM 33.7294 -114.5803 276° West 424 488 30,000  Level Los Angeles Center
Thu 03:25:03 PM 33.7397 -114.7200 275° West 424 488 30,000  Level Los Angeles Center
Thu 03:26:05 PM 33.7517 -114.8617 276° West 425 489 30,000  Level Los Angeles Center
Thu 03:27:07 PM 33.7644 -115.0319 275° West 426 490 30,000 -435 Level Los Angeles Center
Thu 03:28:09 PM 33.7747 -115.1728 275° West 426 490 29,100 -912 Descending Los Angeles Center
Thu 03:29:12 PM 33.7861 -115.3133 276° West 426 490 28,100 -528 Descending Los Angeles Center
Thu 03:30:14 PM 33.7956 -115.4547 275° West 426 490 28,000 -48 Descending Los Angeles Center
Thu 03:31:16 PM 33.8056 -115.5944 275° West 426 490 28,000  Level Los Angeles Center
Thu 03:32:18 PM 33.8175 -115.7628 275° West 424 488 28,000  Level Los Angeles Center
Thu 03:33:20 PM 33.8269 -115.9036 275° West 424 488 28,000 -581 Level Los Angeles Center
Thu 03:34:22 PM 33.8375 -116.0458 275° West 425 489 26,800 -1,152 Descending Los Angeles Center
Thu 03:35:25 PM 33.8467 -116.1844 275° West 425 489 25,600 -1,680 Descending Los Angeles Center
Thu 03:36:27 PM 33.8558 -116.3175 275° West 410 472 23,300 -2,419 Descending Los Angeles Center
Thu 03:37:29 PM 33.8672 -116.4733 275° West 395 455 20,600 -2,371 Descending Los Angeles Center
Thu 03:38:31 PM 33.8756 -116.5986 275° West 382 440 18,400 -2,081 Descending Los Angeles Center
Thu 03:39:33 PM 33.8844 -116.7194 275° West 367 422 16,300 -2,081 Descending Los Angeles Center
Thu 03:40:35 PM 33.8883 -116.8361 272° West 357 411 14,100 -1,515 Descending Los Angeles Center
Thu 03:41:12 PM 33.8833 -116.9167 266° West 347 399 13,800 -990 Descending Southern California TRACON
Thu 03:42:12 PM 33.8667 -117.0333 260° West 347 399 12,500 -1,400 Descending Southern California TRACON
Thu 03:43:12 PM 33.8500 -117.1500 260° West 339 390 11,000 -1,300 Descending Southern California TRACON
Thu 03:44:12 PM 33.8333 -117.2500 259° West 309 356 9,900 -1,250 Descending Southern California TRACON
Thu 03:45:12 PM 33.8333 -117.3500 270° West 294 338 8,500 -1,213 Descending Southern California TRACON
Thu 03:45:46 PM 33.8253 -117.3856 255° West 295 339 8,000 -313 Descending Los Angeles Center
Thu 03:46:48 PM 33.8100 -117.4889 260° West 261 300 8,000 -48 Level Los Angeles Center
Thu 03:47:51 PM 33.7964 -117.5672 258° West 244 281 7,900 -720 Descending Los Angeles Center
Thu 03:48:53 PM 33.7867 -117.6414 261° West 233 268 6,500 -1,355 Descending Los Angeles Center
Thu 03:49:55 PM 33.8261 -117.7058 306° West 236 272 5,100 -1,210 Descending Los Angeles Center
Thu 03:50:57 PM 33.8403 -117.7728 284° West 227 261 4,000 -1,016 Descending Los Angeles Center
Thu 03:51:59 PM 33.7906 -117.8042 208° Southwest 195 224 3,000 -823 Descending Los Angeles Center
Thu 03:53:01 PM 33.7469 -117.8214 198° South 170 196 2,300 -960 Descending Los Angeles Center
Thu 03:54:04 PM 33.7122 -117.8461 211° Southwest 154 177 1,000 -720 Descending Los Angeles Center
Thu 03:55:06 PM 33.6806 -117.8656 207° Southwest 141 162 800 465 Descending Los Angeles Center
Thu 03:56:13 PM 33.6333 -117.9000 211° Southwest 210 242 2,000 885 Climbing Southern California TRACON
Thu 03:57:08 PM 33.5833 -117.9333 209° Southwest 223 257 2,600 574 Climbing Southern California TRACON
Thu 03:58:08 PM 33.6167 -117.9833 309° West 221 254 3,100 190 Climbing Southern California TRACON
Thu 03:59:14 PM 33.6786 -117.9883 356° North 221 254 3,000  Descending Los Angeles Center
Thu 04:00:08 PM 33.7333 -117.9667 18° North 211 243 3,100 -150 Climbing Southern California TRACON
Thu 04:01:14 PM 33.7667 -117.9167 51° Northeast 194 223 2,700 -714 Descending Southern California TRACON
Thu 04:02:14 PM 33.7667 -117.8667 90° East 162 186 1,600 -800 Descending Southern California TRACON
Thu 04:03:14 PM 33.7333 -117.8333 140° Southeast 145 167 1,100 -574 Descending Southern California TRACON
Thu 04:04:09 PM 33.7000 -117.8500 203° Southwest 129 148 500 -655 Descending Southern California TRACON

Login

Don't have an account? Register now (free) for customized features, flight alerts, and more!